Archival Weather

Granbury Rgnl

Granbury, Texas (KGDJ)

Report from: Monday, January 29, 2024 7:35 PM UTC
Current time: Tuesday, June 18, 2024 12:17 PM UTC

Current weather – Weather history – Daily summaries
Weather forecast

Temperature21.0°C (69.8°F)
Dew point3.5°C (38.3°F)
Winds 9 kts (4.6 m/s, 10.4 mph) West (270°)
Visibility10 mi. (16.1 km)
Clouds Sky clear
Altimeter30.26 in.Hg (1025 mB)
Relative humidity32 %
Density altitude435 ft. (133 m)
Remarks Fully automated report
Automated weather observing station with precipitation discriminator
Flight conditions Visual Meteorological Conditions
Raw dataKGDJ 291935Z AUTO 27009KT 10SM CLR 21/04 A3026 RMK AO2 T02100035
An error has occurred. This application may no longer respond until reloaded. Reload 🗙